首页
METAR-TAF:

METAR-TAF

机场 :

Taylorville Municipal Airport

Taylorville, 伊利诺伊州, 美国

纬度: 39-32-03N, 经度: 089-19-40W, 海拔: 190米

当前天气观测

该预报发布于19分钟前的14:55 UTC
风速5节,风向
温度 20°C
湿度 88%
气压 1017 hPa
能見度: 16.1公里
阴天层高于9000英尺

METAR: KTAZ 221455Z AUTO 36005KT 10SM OVC090 20/18 A3002 RMK AO2 60003 T01990181

时间: 10:14 (15:14 UTC)


TAF: 丢失

超过4000个机场的气象观测和天气预报(METAR&TAF报告)。

可查询的气象台以黄色和红色小点在地图上表示。

将鼠标移到小点上方,可查看气象台名称。

然后点击查看天气观测和预报。

如需切换地图:点击带黑十字的绿色按钮放大地图;点击带横线的绿色按钮缩小地图;或者点击绿色箭头查看邻近地区的地图。


METAR-TAF: